This is the latest recevied weather packets stored in our database for station/object HK4K-15. If no packets are shown the sender has not sent any weather packets the latest 1 day(s).
| Time | Temp. | Humidity | Pressure | Rain* | Wind** | Luminosity | Snow |
|---|---|---|---|---|---|---|---|
| 1778080306 | 22.22° C | 71% | 1015 hPa | 0 mm | - | - | - |
| 1778079285 | 22.22° C | 72% | 1015 hPa | 0 mm | - | - | - |
| 1778076224 | 19.44° C | 90% | 1016 hPa | 0 mm | - | - | - |
| 1778074177 | 17.22° C | 96% | 1016 hPa | 0 mm | - | - | - |
| 1778072136 | 17.78° C | 96% | 1016 hPa | 0 mm | - | - | - |
| 1778071114 | 17.78° C | 96% | 1016 hPa | 0 mm | - | - | - |
| 1778069073 | 17.22° C | 97% | 1017 hPa | 0 mm | - | - | - |
| 1778067032 | 17.22° C | 95% | 1017 hPa | 0 mm | - | - | - |
| 1778064991 | 17.78° C | 92% | 1016 hPa | 0 mm | - | - | - |
| 1778059884 | 17.78° C | 93% | 1016 hPa | 0 mm | - | - | - |
| 1778058863 | 17.78° C | 95% | 1015 hPa | 0 mm | - | - | - |
| 1778055800 | 18.33° C | 96% | 1016 hPa | 0 mm | - | - | - |
| 1778053759 | 19.44° C | 92% | 1016 hPa | 0 mm | - | - | - |
| 1778052739 | 19.44° C | 94% | 1016 hPa | 0 mm | - | - | - |
| 1778050696 | 20° C | 91% | 1016 hPa | 0 mm | - | - | - |
| 1778047633 | 20° C | 91% | 1016 hPa | 0 mm | - | - | - |
| 1778046612 | 21.11° C | 87% | 1016 hPa | 0 mm | - | - | - |
| 1778045591 | 21.11° C | 87% | 1016 hPa | 0 mm | - | - | - |
| 1778043549 | 21.11° C | 83% | 1017 hPa | 0 mm | - | - | - |
| 1778041507 | 21.11° C | 83% | 1017 hPa | 0 mm | - | - | - |
| 1778040485 | 21.11° C | 83% | 1017 hPa | 0 mm | - | - | - |
| 1778038438 | 21.11° C | 82% | 1017 hPa | 0 mm | - | - | - |
| 1778037418 | 21.11° C | 82% | 1017 hPa | 0 mm | - | - | - |
| 1778036397 | 22.22° C | 73% | 1017 hPa | 0 mm | - | - | - |
| 1778035377 | 22.22° C | 73% | 1017 hPa | 0 mm | - | - | - |
* Rain latest hour (hover to see other rain measurements)
** Current wind speed in m/s (hover to see current wind gust speed)